createdAt,value
2017-07-14T00:01:22.728Z,6.00
2017-07-14T00:03:50.161Z,6.27
2017-07-14T00:06:17.613Z,5.70
2017-07-14T00:08:45.053Z,6.20
2017-07-14T00:11:12.541Z,6.50
2017-07-14T00:13:39.967Z,6.63
2017-07-14T00:16:07.391Z,7.10
2017-07-14T00:18:34.812Z,6.60
2017-07-14T00:21:02.229Z,7.50
2017-07-14T00:23:29.659Z,6.20
2017-07-14T00:25:57.082Z,5.93
2017-07-14T00:28:24.506Z,5.40
2017-07-14T00:30:51.930Z,5.70
2017-07-14T00:33:20.131Z,5.10
2017-07-14T00:35:47.559Z,5.80
2017-07-14T00:38:15.749Z,6.03
2017-07-14T00:40:43.184Z,5.97
2017-07-14T00:43:10.604Z,5.60
2017-07-14T00:45:38.040Z,6.13
2017-07-14T00:48:05.465Z,6.77
2017-07-14T00:50:33.648Z,5.83
2017-07-14T00:53:01.097Z,5.83
2017-07-14T00:55:28.601Z,5.70
2017-07-14T00:57:56.036Z,5.43
2017-07-14T01:00:23.470Z,5.90
2017-07-14T01:02:51.682Z,6.00
2017-07-14T01:05:19.107Z,5.90
2017-07-14T01:07:46.529Z,5.70
2017-07-14T01:10:13.965Z,6.90
2017-07-14T01:12:41.395Z,7.10
2017-07-14T01:15:08.821Z,7.10
2017-07-14T01:17:36.241Z,6.30
2017-07-14T01:20:03.676Z,6.30
2017-07-14T01:22:31.118Z,6.13
2017-07-14T01:24:58.536Z,5.90
2017-07-14T01:27:26.726Z,5.53
2017-07-14T01:29:54.155Z,5.13
2017-07-14T01:32:22.345Z,6.77
2017-07-14T01:34:49.773Z,5.10
2017-07-14T01:37:17.197Z,6.27
2017-07-14T01:39:44.633Z,5.33
2017-07-14T01:42:12.054Z,5.60
2017-07-14T01:44:40.246Z,5.77
2017-07-14T01:47:07.683Z,6.40
2017-07-14T01:49:35.196Z,6.20
2017-07-14T01:52:02.637Z,5.37
2017-07-14T01:54:30.053Z,6.03
2017-07-14T01:56:58.284Z,5.40
2017-07-14T01:59:25.710Z,5.63
2017-07-14T02:01:53.133Z,5.40
2017-07-14T02:04:21.329Z,5.57
2017-07-14T02:06:48.758Z,4.90
2017-07-14T02:09:16.962Z,5.50
2017-07-14T02:11:44.386Z,4.47
2017-07-14T02:14:11.814Z,4.87
2017-07-14T02:16:39.247Z,5.23
2017-07-14T02:19:06.672Z,4.70
2017-07-14T02:21:34.865Z,4.80
2017-07-14T02:24:02.285Z,5.33
2017-07-14T02:26:30.611Z,4.40
2017-07-14T02:28:58.027Z,5.13
2017-07-14T02:31:26.213Z,4.47
2017-07-14T02:33:53.644Z,4.90
2017-07-14T02:36:21.845Z,4.70
2017-07-14T02:38:49.273Z,4.50
2017-07-14T02:41:16.693Z,4.47
2017-07-14T02:43:44.115Z,4.27
2017-07-14T02:46:11.537Z,4.30
2017-07-14T02:48:39.729Z,4.17
2017-07-14T02:51:07.157Z,4.53
2017-07-14T02:53:34.581Z,4.87
2017-07-14T02:56:02.013Z,4.77
2017-07-14T02:58:29.434Z,4.10
2017-07-14T03:00:57.645Z,4.40
2017-07-14T03:03:25.076Z,4.50
2017-07-14T03:05:53.273Z,4.50
2017-07-14T03:08:20.701Z,4.97
2017-07-14T03:10:48.942Z,4.63
2017-07-14T03:13:16.367Z,5.27
2017-07-14T03:15:43.790Z,4.30
2017-07-14T03:18:12.014Z,4.20
2017-07-14T03:20:39.438Z,4.80
2017-07-14T03:23:06.897Z,5.00
2017-07-14T03:25:34.333Z,4.70
2017-07-14T03:28:02.525Z,4.70
2017-07-14T03:30:29.961Z,6.60
2017-07-14T03:32:57.403Z,5.03
2017-07-14T03:35:25.593Z,4.93
2017-07-14T03:37:53.038Z,5.10
2017-07-14T03:40:21.229Z,4.47
2017-07-14T03:42:48.669Z,4.93
2017-07-14T03:45:16.856Z,5.27
2017-07-14T03:47:44.301Z,5.07
2017-07-14T03:50:11.738Z,5.13
2017-07-14T03:52:39.154Z,5.03
2017-07-14T03:55:06.581Z,4.87
2017-07-14T03:57:34.008Z,4.97
2017-07-14T04:00:02.196Z,5.53
2017-07-14T04:02:29.638Z,5.70
2017-07-14T04:04:57.902Z,5.37
2017-07-14T04:07:25.334Z,5.30
2017-07-14T04:09:52.794Z,5.13
2017-07-14T04:12:20.257Z,4.57
2017-07-14T04:14:47.682Z,5.20
2017-07-14T04:17:15.122Z,4.90
2017-07-14T04:19:42.570Z,4.23
2017-07-14T04:22:09.992Z,5.00
2017-07-14T04:24:37.421Z,5.03
2017-07-14T04:27:04.845Z,5.10
2017-07-14T04:29:32.291Z,5.10
2017-07-14T04:32:00.484Z,4.40
2017-07-14T04:34:27.951Z,6.00
2017-07-14T04:36:55.373Z,6.60
2017-07-14T04:39:22.802Z,5.20
2017-07-14T04:41:51.025Z,4.43
2017-07-14T04:44:18.446Z,4.43
2017-07-14T04:46:46.670Z,4.20
2017-07-14T04:49:14.125Z,5.03
2017-07-14T04:51:41.561Z,5.40
2017-07-14T04:54:08.989Z,4.43
2017-07-14T04:56:36.414Z,4.33
2017-07-14T04:59:03.850Z,4.80
2017-07-14T05:01:31.282Z,5.00
2017-07-14T05:03:58.710Z,4.47
2017-07-14T05:06:26.935Z,4.83
2017-07-14T05:08:54.366Z,5.00
2017-07-14T05:11:21.792Z,4.43
2017-07-14T05:13:50.006Z,4.73
2017-07-14T05:16:17.430Z,3.83
2017-07-14T05:18:45.623Z,4.70
2017-07-14T05:21:13.040Z,3.80
2017-07-14T05:23:40.465Z,4.53
2017-07-14T05:26:07.910Z,4.00
2017-07-14T05:28:35.485Z,4.67
2017-07-14T05:31:02.923Z,3.60
2017-07-14T05:33:30.367Z,4.50
2017-07-14T05:35:57.780Z,4.60
2017-07-14T05:38:25.215Z,5.50
2017-07-14T05:40:52.652Z,6.60
2017-07-14T05:43:20.096Z,5.20
2017-07-14T05:45:47.531Z,5.10
2017-07-14T05:48:14.957Z,5.70
2017-07-14T05:50:42.386Z,6.50
2017-07-14T05:53:09.822Z,6.83
2017-07-14T05:55:37.250Z,5.90
2017-07-14T05:58:04.672Z,3.80
2017-07-14T06:00:32.107Z,3.60
2017-07-14T06:02:59.576Z,3.87
2017-07-14T06:05:27.019Z,3.40
2017-07-14T06:07:54.446Z,3.47
2017-07-14T06:10:22.662Z,3.27
2017-07-14T06:12:50.100Z,3.60
2017-07-14T06:15:17.519Z,3.10
2017-07-14T06:17:44.953Z,3.97
2017-07-14T06:20:13.166Z,3.70
2017-07-14T06:22:40.586Z,3.40
2017-07-14T06:25:08.788Z,3.90
2017-07-14T06:27:36.270Z,3.57
2017-07-14T06:30:03.693Z,3.83
2017-07-14T06:32:31.127Z,3.97
2017-07-14T06:34:59.322Z,5.20
2017-07-14T06:37:26.766Z,5.00
2017-07-14T06:39:54.965Z,5.03
2017-07-14T06:42:23.399Z,3.90
2017-07-14T06:44:50.822Z,3.90
2017-07-14T06:47:18.295Z,3.30
2017-07-14T06:49:45.704Z,3.10
2017-07-14T06:52:13.146Z,3.10
2017-07-14T06:54:40.593Z,3.10
2017-07-14T06:57:08.791Z,3.80
2017-07-14T06:59:36.236Z,3.90
2017-07-14T07:02:03.673Z,3.20
2017-07-14T07:04:31.198Z,3.77
2017-07-14T07:06:58.622Z,3.77
2017-07-14T07:09:26.054Z,4.00
2017-07-14T07:11:53.499Z,2.57
2017-07-14T07:14:21.735Z,3.00
2017-07-14T07:16:49.158Z,2.77
2017-07-14T07:19:16.593Z,2.97
2017-07-14T07:21:44.790Z,3.50
2017-07-14T07:24:12.237Z,3.30
2017-07-14T07:26:39.690Z,3.33
2017-07-14T07:29:07.151Z,3.60
2017-07-14T07:31:34.598Z,3.00
2017-07-14T07:34:02.014Z,3.13
2017-07-14T07:36:29.490Z,3.50
2017-07-14T07:42:13.293Z,3.63
2017-07-14T07:44:40.790Z,5.57
2017-07-14T07:47:13.934Z,4.37
2017-07-14T07:49:41.410Z,3.07
2017-07-14T07:52:08.876Z,3.00
2017-07-14T07:54:36.328Z,3.10
2017-07-14T07:57:03.772Z,4.10
2017-07-14T07:59:31.237Z,4.10
2017-07-14T08:01:58.702Z,3.70
2017-07-14T08:04:26.142Z,4.00
2017-07-14T08:06:53.565Z,3.40
2017-07-14T08:09:21.052Z,3.60
2017-07-14T08:11:48.513Z,3.77
2017-07-14T08:14:15.941Z,3.57
2017-07-14T08:16:43.380Z,3.73
2017-07-14T08:19:11.565Z,3.37
2017-07-14T08:21:38.993Z,3.17
2017-07-14T08:24:06.421Z,3.40
2017-07-14T08:26:33.845Z,2.87
2017-07-14T08:29:01.277Z,3.17
2017-07-14T08:31:29.494Z,2.97
2017-07-14T08:33:56.921Z,4.13
2017-07-14T08:36:24.360Z,3.57
2017-07-14T08:38:52.554Z,3.23
2017-07-14T08:41:19.984Z,3.17
2017-07-14T08:43:47.412Z,3.00
2017-07-14T08:46:14.832Z,2.70
2017-07-14T08:48:42.260Z,2.50
2017-07-14T08:51:10.445Z,2.30
2017-07-14T08:53:37.871Z,2.77
2017-07-14T08:56:06.073Z,2.93
2017-07-14T08:58:33.491Z,2.50
2017-07-14T09:01:01.007Z,2.70
2017-07-14T09:03:28.426Z,2.83
2017-07-14T09:05:56.617Z,2.93
2017-07-14T09:08:24.039Z,2.87
2017-07-14T09:10:52.249Z,2.67
2017-07-14T09:13:20.468Z,2.70
2017-07-14T09:15:47.902Z,2.63
2017-07-14T09:18:15.354Z,3.17
2017-07-14T09:20:42.796Z,2.60
2017-07-14T09:23:10.213Z,3.30
2017-07-14T09:25:37.633Z,3.20
2017-07-14T09:28:05.818Z,3.40
2017-07-14T09:30:33.254Z,3.10
2017-07-14T09:33:00.700Z,2.80
2017-07-14T09:35:28.135Z,3.27
2017-07-14T09:37:55.567Z,3.17
2017-07-14T09:40:22.988Z,3.20
2017-07-14T09:42:51.173Z,2.90
2017-07-14T09:45:18.618Z,3.10
2017-07-14T09:47:46.817Z,2.90
2017-07-14T09:50:14.239Z,3.10
2017-07-14T09:52:41.671Z,3.07
2017-07-14T09:55:09.137Z,2.90
2017-07-14T09:57:36.562Z,3.40
2017-07-14T10:00:03.998Z,3.30
2017-07-14T10:02:31.425Z,3.73
2017-07-14T10:04:59.614Z,3.63
2017-07-14T10:07:27.056Z,3.87
2017-07-14T10:09:55.253Z,3.77
2017-07-14T10:12:22.685Z,4.40
2017-07-14T10:14:50.115Z,4.00
2017-07-14T10:17:17.575Z,3.83
2017-07-14T10:19:45.765Z,3.70
2017-07-14T10:22:13.211Z,4.30
2017-07-14T10:24:40.636Z,5.17
2017-07-14T10:27:08.865Z,5.30
2017-07-14T10:29:36.298Z,4.83
2017-07-14T10:32:03.777Z,5.10
2017-07-14T10:34:31.258Z,4.50
2017-07-14T10:36:58.703Z,5.07
2017-07-14T10:39:26.135Z,4.83
2017-07-14T10:41:54.324Z,4.90
2017-07-14T10:44:21.821Z,4.83
2017-07-14T10:46:49.257Z,4.40
2017-07-14T10:49:16.709Z,4.20
2017-07-14T10:51:44.138Z,5.43
2017-07-14T10:54:12.360Z,5.30
2017-07-14T10:56:39.814Z,4.90
2017-07-14T10:59:07.270Z,5.20
2017-07-14T11:01:34.721Z,4.77
2017-07-14T11:04:02.149Z,5.53
2017-07-14T11:06:29.595Z,5.33
2017-07-14T11:08:57.790Z,4.80
2017-07-14T11:11:25.224Z,5.17
2017-07-14T11:13:53.412Z,5.67
2017-07-14T11:16:20.842Z,5.70
2017-07-14T11:18:48.349Z,4.97
2017-07-14T11:21:15.803Z,4.50
2017-07-14T11:23:43.241Z,5.20
2017-07-14T11:26:10.669Z,4.80
2017-07-14T11:28:38.885Z,4.63
2017-07-14T11:31:06.300Z,4.93
2017-07-14T11:33:34.517Z,5.90
2017-07-14T11:36:01.964Z,4.33
2017-07-14T11:38:29.405Z,4.27
2017-07-14T11:40:57.581Z,4.90
2017-07-14T11:43:25.001Z,5.10
2017-07-14T11:45:52.454Z,4.57
2017-07-14T11:48:19.897Z,5.20
2017-07-14T11:50:47.328Z,5.03
2017-07-14T11:53:14.750Z,4.30
2017-07-14T11:55:42.950Z,4.23
2017-07-14T11:58:10.377Z,4.10
2017-07-14T12:00:38.586Z,4.30
2017-07-14T12:03:06.007Z,4.90
2017-07-14T12:05:33.510Z,4.20
2017-07-14T12:08:00.958Z,4.00
2017-07-14T12:10:28.394Z,3.80
2017-07-14T12:12:55.817Z,4.50
2017-07-14T12:15:23.247Z,4.13
2017-07-14T12:17:50.669Z,3.77
2017-07-14T12:20:18.106Z,4.00
2017-07-14T12:22:45.517Z,4.03
2017-07-14T12:25:12.953Z,4.27
2017-07-14T12:27:40.377Z,4.27
2017-07-14T12:30:08.075Z,4.23
2017-07-14T12:32:35.510Z,4.13
2017-07-14T12:35:02.973Z,3.70
2017-07-14T12:37:30.405Z,4.30
2017-07-14T12:39:57.881Z,4.57
2017-07-14T12:42:25.287Z,4.40
2017-07-14T12:44:52.817Z,3.53
2017-07-14T12:47:20.253Z,4.20
2017-07-14T12:49:47.742Z,3.67
2017-07-14T12:52:15.173Z,3.70
2017-07-14T12:54:42.600Z,3.70
2017-07-14T12:57:10.037Z,4.17
2017-07-14T12:59:38.260Z,3.80
2017-07-14T13:02:05.682Z,3.90
2017-07-14T13:04:33.107Z,4.50
2017-07-14T13:07:00.536Z,3.50
2017-07-14T13:09:27.956Z,3.70
2017-07-14T13:11:55.448Z,3.60
2017-07-14T13:14:22.880Z,3.70
2017-07-14T13:16:50.299Z,4.27
2017-07-14T13:19:17.729Z,4.80
2017-07-14T13:21:45.164Z,4.77
2017-07-14T13:24:12.615Z,4.00
2017-07-14T13:26:40.074Z,4.83
2017-07-14T13:29:07.486Z,4.00
2017-07-14T13:31:35.674Z,4.37
2017-07-14T13:34:03.093Z,4.30
2017-07-14T13:36:30.520Z,4.43
2017-07-14T13:38:57.943Z,4.30
2017-07-14T13:41:25.369Z,4.17
2017-07-14T13:43:53.560Z,3.70
2017-07-14T13:46:21.752Z,3.77
2017-07-14T13:48:49.243Z,3.30
2017-07-14T13:51:16.711Z,3.20
2017-07-14T13:53:44.161Z,3.50
2017-07-14T13:56:11.599Z,3.60
2017-07-14T13:58:39.017Z,3.57
2017-07-14T14:01:07.206Z,3.50
2017-07-14T14:03:34.626Z,3.70
2017-07-14T14:06:02.822Z,3.60
2017-07-14T14:08:30.317Z,2.90
2017-07-14T14:10:57.773Z,3.60
2017-07-14T14:13:25.195Z,3.33
2017-07-14T14:15:52.617Z,3.37
2017-07-14T14:18:20.047Z,3.07
2017-07-14T14:20:47.477Z,3.07
2017-07-14T14:23:14.892Z,3.70
2017-07-14T14:25:43.110Z,3.10
2017-07-14T14:28:10.572Z,3.53
2017-07-14T14:30:38.729Z,2.90
2017-07-14T14:33:06.164Z,3.80
2017-07-14T14:35:34.346Z,3.40
2017-07-14T14:38:01.781Z,3.10
2017-07-14T14:40:29.961Z,3.30
2017-07-14T14:42:58.147Z,3.23
2017-07-14T14:45:25.567Z,3.40
2017-07-14T14:47:53.087Z,3.50
2017-07-14T14:50:20.500Z,3.17
2017-07-14T14:52:48.693Z,3.43
2017-07-14T14:55:16.189Z,3.23
2017-07-14T14:57:43.610Z,3.67
2017-07-14T15:00:11.043Z,3.60
2017-07-14T15:02:39.269Z,3.80
2017-07-14T15:05:06.673Z,3.87
2017-07-14T15:07:34.863Z,3.77
2017-07-14T15:10:02.318Z,3.40
2017-07-14T15:12:29.740Z,3.67
2017-07-14T15:14:57.271Z,3.30
2017-07-14T15:17:24.725Z,3.63
2017-07-14T15:19:52.171Z,3.60
2017-07-14T15:22:19.607Z,3.43
2017-07-14T15:24:47.038Z,3.50
2017-07-14T15:27:15.243Z,3.50
2017-07-14T15:29:42.680Z,3.70
2017-07-14T15:32:10.877Z,4.63
2017-07-14T15:34:38.315Z,3.67
2017-07-14T15:37:05.764Z,3.47
2017-07-14T15:39:33.946Z,4.03
2017-07-14T15:42:01.387Z,4.37
2017-07-14T15:44:29.575Z,4.80
2017-07-14T15:46:57.031Z,5.30
2017-07-14T15:49:24.520Z,4.77
2017-07-14T15:51:51.953Z,5.23
2017-07-14T15:54:19.383Z,5.50
2017-07-14T15:56:47.598Z,5.40
2017-07-14T15:59:15.022Z,5.87
2017-07-14T16:01:43.214Z,5.70
2017-07-14T16:04:10.653Z,6.53
2017-07-14T16:06:38.083Z,6.40
2017-07-14T16:09:05.538Z,6.43
2017-07-14T16:11:32.969Z,6.80
2017-07-14T16:14:00.394Z,7.20
2017-07-14T16:19:01.782Z,7.57
2017-07-14T16:21:29.219Z,6.73
2017-07-14T16:23:56.641Z,6.20
2017-07-14T16:26:24.833Z,5.40
2017-07-14T16:28:52.285Z,5.53
2017-07-14T16:31:19.728Z,5.07
2017-07-14T16:33:47.928Z,4.83
2017-07-14T16:36:15.363Z,5.10
2017-07-14T16:38:42.800Z,4.97
2017-07-14T16:41:10.215Z,4.77
2017-07-14T16:43:37.646Z,4.40
2017-07-14T16:46:36.766Z,4.80
2017-07-14T16:49:04.197Z,5.07
2017-07-14T16:51:31.628Z,4.50
2017-07-14T16:53:59.828Z,4.60
2017-07-14T16:56:27.241Z,4.47
2017-07-14T16:58:54.764Z,4.60
2017-07-14T17:01:22.210Z,5.60
2017-07-14T17:03:49.641Z,6.30
2017-07-14T17:06:17.099Z,5.83
2017-07-14T17:08:44.535Z,6.47
2017-07-14T17:11:12.753Z,8.37
2017-07-14T17:13:40.203Z,8.30
2017-07-14T17:16:07.682Z,8.90
2017-07-14T17:18:35.133Z,8.67
2017-07-14T17:21:02.561Z,8.17
2017-07-14T17:23:30.004Z,6.80
2017-07-14T17:25:57.435Z,6.37
2017-07-14T17:28:24.975Z,5.47
2017-07-14T17:30:52.410Z,5.50
2017-07-14T17:33:20.167Z,5.37
2017-07-14T17:35:47.907Z,5.03
2017-07-14T17:38:16.631Z,5.33
2017-07-14T17:40:44.259Z,5.80
2017-07-14T17:43:11.950Z,5.27
2017-07-14T17:45:39.377Z,5.40
2017-07-14T17:48:06.913Z,4.70
2017-07-14T17:50:35.102Z,4.70
2017-07-14T17:53:02.521Z,5.33
2017-07-14T17:55:29.947Z,4.90
2017-07-14T17:57:57.371Z,4.50
2017-07-14T18:00:24.811Z,6.87
2017-07-14T18:02:52.232Z,5.40
2017-07-14T18:05:19.655Z,5.10
2017-07-14T18:07:47.088Z,3.97
2017-07-14T18:10:14.521Z,5.57
2017-07-14T18:12:42.708Z,4.60
2017-07-14T18:15:10.139Z,5.20
2017-07-14T18:17:38.326Z,3.53
2017-07-14T18:20:06.525Z,4.97
2017-07-14T18:22:33.944Z,3.67
2017-07-14T18:25:02.142Z,3.20
2017-07-14T18:27:29.569Z,3.03
2017-07-14T18:29:56.990Z,2.97
2017-07-14T18:32:24.424Z,3.07
2017-07-14T18:34:51.861Z,4.77
2017-07-14T18:37:19.402Z,3.57
2017-07-14T18:39:47.605Z,3.83
2017-07-14T18:42:15.118Z,3.20
2017-07-14T18:44:42.537Z,3.40
2017-07-14T18:47:09.975Z,3.10
2017-07-14T18:49:37.401Z,3.37
2017-07-14T18:52:05.611Z,3.10
2017-07-14T18:54:33.042Z,3.30
2017-07-14T18:57:01.237Z,3.63
2017-07-14T18:59:28.662Z,3.33
2017-07-14T19:01:56.854Z,3.70
2017-07-14T19:04:24.315Z,3.53
2017-07-14T19:06:51.832Z,3.40
2017-07-14T19:09:19.273Z,3.50
2017-07-14T19:11:46.713Z,4.10
2017-07-14T19:14:14.134Z,4.43
2017-07-14T19:16:41.563Z,4.63
2017-07-14T19:19:09.759Z,6.00
2017-07-14T19:21:37.225Z,5.97
2017-07-14T19:24:04.855Z,6.00
2017-07-14T19:26:33.233Z,6.40
2017-07-14T19:29:01.471Z,6.73
2017-07-14T19:31:29.138Z,6.83
2017-07-14T19:33:56.676Z,7.70
2017-07-14T19:36:25.722Z,7.30
2017-07-14T19:38:55.140Z,7.50
2017-07-14T19:41:22.749Z,7.87
2017-07-14T19:43:50.220Z,9.10
2017-07-14T19:46:17.670Z,9.13
2017-07-14T19:48:45.133Z,9.37
2017-07-14T19:51:12.722Z,9.77
2017-07-14T19:53:40.241Z,9.33
2017-07-14T19:59:06.974Z,9.50
2017-07-14T20:01:34.543Z,9.73
2017-07-14T20:04:02.162Z,9.87
2017-07-14T20:06:29.652Z,10.90
2017-07-14T20:08:57.168Z,10.43
2017-07-14T20:11:25.385Z,10.57
2017-07-14T20:13:52.920Z,11.73
2017-07-14T20:16:21.210Z,11.90
2017-07-14T20:18:48.703Z,12.03
2017-07-14T20:21:16.997Z,11.30
2017-07-14T20:23:45.217Z,11.80
2017-07-14T20:26:12.912Z,11.27
2017-07-14T20:28:40.431Z,12.17
2017-07-14T20:31:07.939Z,12.30
2017-07-14T20:33:35.552Z,11.67
2017-07-14T20:36:03.872Z,11.67
2017-07-14T20:38:31.406Z,11.80
2017-07-14T20:40:58.905Z,11.67
2017-07-14T20:43:26.403Z,12.50
2017-07-14T20:45:53.837Z,12.60
2017-07-14T20:48:21.820Z,12.03
2017-07-14T20:50:50.312Z,13.10
2017-07-14T20:53:28.107Z,10.03
2017-07-14T20:56:00.399Z,12.57
2017-07-14T20:58:27.875Z,12.20
2017-07-14T21:00:55.360Z,12.13
2017-07-14T21:03:23.670Z,10.53
2017-07-14T21:05:51.171Z,12.10
2017-07-14T21:08:19.621Z,12.60
2017-07-14T21:10:47.114Z,13.83
2017-07-14T21:13:14.635Z,13.40
2017-07-14T21:15:42.162Z,13.97
2017-07-14T21:18:09.654Z,14.50
2017-07-14T21:20:37.073Z,14.10
2017-07-14T21:23:04.550Z,13.77
2017-07-14T21:25:32.008Z,13.50
2017-07-14T21:27:59.534Z,14.13
2017-07-14T21:30:27.033Z,12.83
2017-07-14T21:32:54.552Z,13.07
2017-07-14T21:35:22.045Z,12.27
2017-07-14T21:37:49.574Z,12.40
2017-07-14T21:40:18.079Z,12.67
2017-07-14T21:42:45.919Z,13.20
2017-07-14T21:45:13.842Z,13.10
2017-07-14T21:47:41.736Z,13.87
2017-07-14T21:50:10.733Z,13.77
2017-07-14T21:52:39.508Z,12.97
2017-07-14T21:55:07.460Z,13.73
2017-07-14T21:57:35.969Z,15.60
2017-07-14T22:00:05.853Z,14.03
2017-07-14T22:02:33.372Z,14.33
2017-07-14T22:05:01.578Z,14.27
2017-07-14T22:07:34.306Z,15.03
2017-07-14T22:10:06.712Z,14.17
2017-07-14T22:12:34.275Z,13.80
2017-07-14T22:15:01.737Z,13.70
2017-07-14T22:17:29.239Z,13.40
2017-07-14T22:19:56.765Z,13.33
2017-07-14T22:22:24.222Z,12.10
2017-07-14T22:24:51.702Z,12.53
2017-07-14T22:27:19.159Z,12.83
2017-07-14T22:29:46.883Z,16.87
2017-07-14T22:32:14.362Z,10.90
2017-07-14T22:34:41.847Z,10.30
2017-07-14T22:37:09.322Z,10.70
2017-07-14T22:39:36.942Z,9.60
2017-07-14T22:42:04.573Z,7.97
2017-07-14T22:44:32.058Z,8.53
2017-07-14T22:46:59.492Z,8.60
2017-07-14T22:49:26.994Z,8.00
2017-07-14T22:51:54.540Z,8.47
2017-07-14T22:54:22.874Z,6.83
2017-07-14T22:56:50.357Z,7.10
2017-07-14T22:59:17.867Z,7.00
2017-07-14T23:01:46.077Z,6.43
2017-07-14T23:04:13.565Z,6.60
2017-07-14T23:06:41.030Z,6.37
2017-07-14T23:09:08.484Z,6.73
2017-07-14T23:11:35.946Z,6.53
2017-07-14T23:14:04.216Z,6.30
2017-07-14T23:16:31.718Z,6.20
2017-07-14T23:18:59.224Z,5.93
2017-07-14T23:21:27.501Z,6.13
2017-07-14T23:23:56.124Z,5.90
2017-07-14T23:26:23.954Z,5.83
2017-07-14T23:28:51.733Z,6.60
2017-07-14T23:31:19.425Z,6.63
2017-07-14T23:33:47.039Z,6.30
2017-07-14T23:36:15.482Z,6.10
2017-07-14T23:38:43.081Z,5.83
2017-07-14T23:41:10.833Z,6.30
2017-07-14T23:43:38.382Z,6.00
2017-07-14T23:46:05.951Z,5.60
2017-07-14T23:48:33.935Z,5.90
2017-07-14T23:51:01.951Z,5.57
2017-07-14T23:53:29.634Z,5.93
2017-07-14T23:55:57.063Z,5.47
2017-07-14T23:58:24.617Z,5.43
